Portada
METAR-TAF:

METAR-TAF

Aeropuertos :

Aeropuerto Internacional Mitiga

Trípoli, Libia

latitud: 32-54N, longitud: 13-17E, altitud: 11 m

Observación

El informe se hizo hace 37 minutos, a las 06:50 UTC
Viento 4 kt del este-noreste
Temperatura 29°C
Humedad 52%
Presión 1015 hPa
Visibilidad: 8000 m
Cielo despejado

METAR: HLLM 210650Z 07004KT 8000 SKC 29/18 Q1015

Hora: 09:27 (07:27 UTC)

Pronóstico

El informe se hizo hace 2 horas y 27 minutos, a las 05:00 UTC
Pronóstico válido del 21 a las 06 UTC al 22 a las 06 UTC
Viento 12 kt del este
Visibilidad 10 km o más
sin nubes por debajo de 1500 m y sin presencia de cumulonimbus.
Evolucionando progresivamente
del 22 a las 02 UTC al 22 a las 04 UTC
Viento 10 kt del sur-sureste

TAF: HLLM 210500Z 2106/2206 09012KT CAVOK BECMG 2202/2204 16010KT

Observaciones y pronósticos meteorológicos de más de 4000 aeropuertos (mensajes METAR y TAF).

Los puntos amarillos y rojos representan las estaciones disponibles.

Ponga el ratón en el punto deseado para ver el nombre de la estación.

Haga clic para ver las observaciones y los pronósticos meteorológicos.

Para cambiar el mapa : haga clic en los botones verdes con una cruz de color negro para hacer un zoom, en el botón verde con un guión para alejar o en las flechas verdes para mapas adyacentes.


METAR-TAF: